Time;durP1;ratioP1;P1;durP2;ratioP2;P2;SDS_P1;SDS_P2;PMS_P1;PMS_P2;Temp;Humidity;BMP_temperature;BMP_pressure;BME280_temperature;BME280_humidity;BME280_pressure;Samples;Min_cycle;Max_cycle;Signal;HPM_P1;HPM_P2
2023/09/12 00:01:05;;;;;;;8.60;4.33;;;;;;;23.24;72.64;99571.88;5085271;28;20279;-74
2023/09/12 00:03:31;;;;;;;11.13;4.90;;;;;;;23.23;73.02;99573.03;5084855;28;20040;-73
2023/09/12 00:06:00;;;;;;;7.50;4.78;;;;;;;23.18;73.19;99574.09;5085344;28;20457;-73
2023/09/12 00:08:26;;;;;;;9.63;5.07;;;;;;;23.17;73.36;99584.41;5084902;28;20035;-75
2023/09/12 00:11:10;;;;;;;10.98;4.25;;;;;;;23.11;73.67;99577.47;5084762;28;20476;-73
2023/09/12 00:13:35;;;;;;;12.05;5.85;;;;;;;23.19;74.18;99582.06;5084391;28;20034;-72
2023/09/12 00:16:01;;;;;;;8.40;5.05;;;;;;;23.21;73.84;99590.88;5086941;28;20032;-82
2023/09/12 00:18:26;;;;;;;6.47;3.90;;;;;;;23.23;73.67;99587.72;5088600;28;20059;-82
2023/09/12 00:20:52;;;;;;;10.55;4.55;;;;;;;23.32;73.68;99585.63;5089094;28;20043;-81
2023/09/12 00:23:18;;;;;;;7.93;4.57;;;;;;;23.36;73.44;99580.13;5089160;28;20092;-82
2023/09/12 00:25:43;;;;;;;8.55;4.40;;;;;;;23.34;73.15;99585.25;5085870;28;20032;-74
2023/09/12 00:28:09;;;;;;;8.43;3.93;;;;;;;23.33;72.83;99580.84;5084834;28;20042;-73
2023/09/12 00:30:34;;;;;;;7.60;3.80;;;;;;;23.36;73.03;99574.56;5084108;28;20170;-72
2023/09/12 00:32:59;;;;;;;10.63;4.05;;;;;;;23.40;72.34;99564.34;5085039;28;20040;-73
2023/09/12 00:35:24;;;;;;;8.07;3.50;;;;;;;23.42;72.03;99558.44;5082854;28;20162;-73
2023/09/12 00:37:50;;;;;;;7.13;4.60;;;;;;;23.38;71.94;99558.34;5084635;28;20092;-73
2023/09/12 00:40:15;;;;;;;9.10;3.57;;;;;;;23.34;72.12;99563.00;5084735;28;20032;-73
2023/09/12 00:42:40;;;;;;;6.73;3.60;;;;;;;23.31;71.96;99569.25;5084496;28;20028;-73
2023/09/12 00:45:06;;;;;;;7.13;4.45;;;;;;;23.31;72.10;99580.38;5083872;28;20036;-73
2023/09/12 00:47:32;;;;;;;7.00;4.03;;;;;;;23.25;71.96;99584.63;5084576;28;20378;-72
2023/09/12 00:49:59;;;;;;;7.38;3.40;;;;;;;23.23;71.77;99592.50;5084829;28;20024;-74
2023/09/12 00:52:26;;;;;;;7.03;3.78;;;;;;;23.19;71.93;99595.16;5084082;28;20858;-73
2023/09/12 00:54:52;;;;;;;6.88;4.40;;;;;;;23.20;71.83;99607.91;5084030;28;20032;-73
2023/09/12 00:57:17;;;;;;;6.13;4.22;;;;;;;23.16;71.94;99621.72;5084352;28;20460;-73
2023/09/12 00:59:43;;;;;;;6.67;4.47;;;;;;;23.19;71.93;99631.31;5084223;28;20040;-72
2023/09/12 01:02:08;;;;;;;6.35;3.42;;;;;;;23.19;71.77;99623.78;5084047;28;21521;-73
2023/09/12 01:04:35;;;;;;;8.60;4.38;;;;;;;23.23;71.67;99617.53;5083720;28;20024;-72
2023/09/12 01:07:02;;;;;;;7.63;3.70;;;;;;;23.23;71.53;99603.63;5083958;28;20074;-73
2023/09/12 01:09:28;;;;;;;10.30;4.57;;;;;;;23.23;70.76;99593.28;5084454;28;20705;-73
2023/09/12 01:11:54;;;;;;;9.93;4.63;;;;;;;23.24;70.50;99580.22;5084663;28;20028;-74
2023/09/12 01:14:19;;;;;;;10.95;4.20;;;;;;;23.22;70.39;99563.88;5083652;28;21267;-74
2023/09/12 01:16:44;;;;;;;7.00;3.90;;;;;;;23.25;69.80;99554.81;5084233;28;20085;-74
2023/09/12 01:19:14;;;;;;;8.38;4.13;;;;;;;23.33;69.87;99547.47;5082809;28;20031;-73
2023/09/12 01:22:09;;;;;;;8.25;4.93;;;;;;;23.35;69.71;99536.78;5084051;28;20400;-73
2023/09/12 01:24:59;;;;;;;6.75;3.55;;;;;;;23.37;69.83;99520.56;5083868;28;20120;-73
2023/09/12 01:27:30;;;;;;;6.38;3.78;;;;;;;23.35;69.69;99505.41;5083033;28;20036;-72
2023/09/12 01:30:03;;;;;;;6.47;3.30;;;;;;;23.37;69.62;99517.78;5083647;28;20048;-74
2023/09/12 01:32:29;;;;;;;9.98;4.60;;;;;;;23.37;69.68;99526.13;5083726;28;20118;-72
2023/09/12 01:34:54;;;;;;;8.23;4.43;;;;;;;23.38;69.50;99527.75;5082963;28;20040;-74
2023/09/12 01:37:20;;;;;;;8.05;4.38;;;;;;;23.37;69.42;99542.81;5084225;28;20036;-73
2023/09/12 01:39:45;;;;;;;12.70;6.13;;;;;;;23.35;69.16;99549.91;5084237;28;20032;-73
2023/09/12 01:42:15;;;;;;;10.25;6.10;;;;;;;23.31;69.05;99553.41;5083862;28;20240;-73
2023/09/12 01:44:43;;;;;;;10.85;5.78;;;;;;;23.29;69.52;99557.72;5083335;28;20036;-73
2023/09/12 01:47:10;;;;;;;8.90;5.93;;;;;;;23.20;69.43;99547.56;5083363;28;20091;-73
2023/09/12 01:49:39;;;;;;;10.27;5.50;;;;;;;23.23;69.69;99548.03;5083788;28;20040;-73
2023/09/12 01:52:05;;;;;;;12.77;5.60;;;;;;;23.25;69.81;99548.47;5083401;28;20544;-72
2023/09/12 01:54:32;;;;;;;12.15;6.30;;;;;;;23.25;69.76;99545.69;5083334;28;20035;-73
2023/09/12 01:56:58;;;;;;;15.07;8.52;;;;;;;23.25;69.60;99545.69;5083553;28;20598;-73
2023/09/12 01:59:24;;;;;;;12.00;7.68;;;;;;;23.28;69.70;99540.22;5083390;28;20104;-73
2023/09/12 02:01:50;;;;;;;12.23;7.70;;;;;;;23.23;70.07;99543.25;5083082;28;20504;-73
2023/09/12 02:04:15;;;;;;;14.15;8.90;;;;;;;23.26;70.12;99525.88;5082866;28;20138;-72
2023/09/12 02:06:41;;;;;;;14.80;8.77;;;;;;;23.30;69.75;99525.94;5082196;28;20044;-74
2023/09/12 02:09:07;;;;;;;12.57;7.95;;;;;;;23.26;70.13;99525.06;5083037;28;20304;-73
2023/09/12 02:11:32;;;;;;;14.48;9.38;;;;;;;23.23;70.50;99539.69;5083403;28;20078;-74
2023/09/12 02:13:58;;;;;;;15.65;9.55;;;;;;;23.18;70.41;99546.31;5081480;28;20127;-73
2023/09/12 02:16:23;;;;;;;16.70;9.20;;;;;;;23.17;70.67;99562.16;5083499;28;20085;-73
2023/09/12 02:18:48;;;;;;;19.03;11.20;;;;;;;23.08;70.83;99565.13;5083868;28;20264;-73
2023/09/12 02:21:15;;;;;;;16.83;10.37;;;;;;;23.05;70.92;99565.81;5083121;28;20116;-73
2023/09/12 02:23:41;;;;;;;18.38;11.10;;;;;;;23.04;71.35;99564.22;5082724;28;20118;-74
2023/09/12 02:26:06;;;;;;;16.15;10.65;;;;;;;23.04;71.25;99555.88;5082898;28;20061;-72
2023/09/12 02:28:31;;;;;;;16.23;9.63;;;;;;;23.07;71.14;99557.13;5083575;28;20760;-73
2023/09/12 02:30:57;;;;;;;17.10;9.57;;;;;;;23.08;70.98;99554.00;5083511;28;20017;-74
2023/09/12 02:33:22;;;;;;;14.10;8.83;;;;;;;23.05;71.26;99556.66;5083741;28;20028;-75
2023/09/12 02:35:47;;;;;;;14.30;9.40;;;;;;;22.98;71.79;99555.31;5083186;28;20275;-73
2023/09/12 02:38:13;;;;;;;18.27;9.77;;;;;;;23.02;71.64;99565.72;5082780;28;20360;-73
2023/09/12 02:40:39;;;;;;;21.98;9.82;;;;;;;23.05;71.63;99574.16;5083796;28;20043;-74
2023/09/12 02:43:04;;;;;;;15.60;10.53;;;;;;;22.99;71.88;99578.34;5083194;28;20100;-73
2023/09/12 02:45:29;;;;;;;17.05;9.70;;;;;;;22.97;71.94;99575.94;5082759;28;20028;-72
2023/09/12 02:47:55;;;;;;;13.97;9.03;;;;;;;22.99;71.84;99578.34;5083219;28;20040;-73
2023/09/12 02:50:20;;;;;;;14.55;9.52;;;;;;;22.93;72.07;99577.81;5082566;28;20087;-73
2023/09/12 02:52:45;;;;;;;14.63;9.70;;;;;;;22.75;73.01;99577.28;5082977;28;20036;-73
2023/09/12 02:55:11;;;;;;;17.02;9.50;;;;;;;22.83;72.60;99575.53;5082354;28;20297;-72
2023/09/12 02:57:36;;;;;;;13.07;8.40;;;;;;;22.87;72.42;99570.88;5083178;28;20036;-72
2023/09/12 03:00:01;;;;;;;16.77;9.50;;;;;;;22.90;72.34;99580.50;5086986;28;20044;-73
2023/09/12 03:02:29;;;;;;;15.50;10.18;;;;;;;22.82;72.36;99579.47;5086890;28;20028;-72
2023/09/12 03:04:54;;;;;;;16.25;8.95;;;;;;;22.80;72.64;99573.47;5086067;28;20044;-72
2023/09/12 03:07:19;;;;;;;16.50;10.50;;;;;;;22.82;72.55;99566.38;5086578;28;20052;-73
2023/09/12 03:09:48;;;;;;;17.10;10.67;;;;;;;22.88;72.59;99577.25;5086955;28;20504;-73
2023/09/12 03:12:13;;;;;;;18.58;10.63;;;;;;;22.83;72.69;99581.09;5087481;28;20252;-74
2023/09/12 03:14:38;;;;;;;17.07;11.03;;;;;;;22.83;72.56;99586.63;5086381;28;20036;-74
2023/09/12 03:17:04;;;;;;;21.03;11.37;;;;;;;22.85;72.62;99578.75;5085906;28;20768;-73
2023/09/12 03:19:30;;;;;;;20.57;11.30;;;;;;;22.84;72.50;99577.16;5085461;28;20283;-73
2023/09/12 03:21:55;;;;;;;16.15;10.27;;;;;;;22.87;72.28;99559.75;5085818;28;21058;-72
2023/09/12 03:24:23;;;;;;;18.45;11.65;;;;;;;22.85;72.09;99565.69;5085525;28;20056;-73
2023/09/12 03:26:48;;;;;;;24.38;12.23;;;;;;;22.91;72.03;99569.00;5086101;28;20036;-73
2023/09/12 03:29:14;;;;;;;22.27;11.37;;;;;;;22.94;72.00;99571.06;5086229;28;20097;-73
2023/09/12 03:31:39;;;;;;;22.40;12.90;;;;;;;22.96;71.62;99540.16;5084737;28;20287;-72
2023/09/12 03:34:04;;;;;;;22.53;11.33;;;;;;;23.01;71.63;99533.53;5085714;28;20055;-73
2023/09/12 03:36:30;;;;;;;18.65;11.30;;;;;;;23.01;71.61;99517.66;5086024;28;20288;-73
2023/09/12 03:38:55;;;;;;;20.20;11.03;;;;;;;22.87;71.66;99504.19;5086765;28;20028;-73
2023/09/12 03:41:24;;;;;;;16.17;9.75;;;;;;;22.81;71.83;99495.31;5086385;28;20568;-73
2023/09/12 03:43:50;;;;;;;15.60;9.80;;;;;;;22.89;71.63;99501.88;5085378;28;20063;-73
2023/09/12 03:46:15;;;;;;;18.25;11.52;;;;;;;22.88;71.65;99500.25;5088773;28;20059;-82
2023/09/12 03:48:41;;;;;;;23.50;11.60;;;;;;;22.90;71.33;99503.50;5088036;28;20153;-83
2023/09/12 03:51:06;;;;;;;18.10;10.52;;;;;;;22.88;70.73;99480.00;5089537;28;20036;-82
2023/09/12 03:53:31;;;;;;;17.83;10.20;;;;;;;22.77;71.20;99476.91;5089439;28;20498;-81
2023/09/12 03:55:59;;;;;;;13.18;8.95;;;;;;;22.76;71.22;99469.75;5087471;28;20310;-73
2023/09/12 03:58:24;;;;;;;16.10;9.07;;;;;;;22.77;71.31;99482.47;5085458;28;20051;-73
2023/09/12 04:00:49;;;;;;;17.08;10.02;;;;;;;22.83;70.74;99489.41;5085719;28;20035;-73
2023/09/12 04:03:16;;;;;;;12.10;8.00;;;;;;;22.80;70.52;99479.00;5085683;28;20047;-73
2023/09/12 04:05:41;;;;;;;13.82;8.23;;;;;;;22.83;70.48;99478.28;5084924;28;20028;-73
2023/09/12 04:08:06;;;;;;;14.95;8.48;;;;;;;22.83;69.94;99473.53;5085717;28;20507;-73
2023/09/12 04:10:32;;;;;;;14.30;7.30;;;;;;;22.79;69.92;99475.41;5085363;28;20874;-73
2023/09/12 04:12:57;;;;;;;15.77;7.10;;;;;;;22.82;69.43;99474.69;5085580;28;20028;-73
2023/09/12 04:15:23;;;;;;;15.52;8.38;;;;;;;22.85;69.41;99474.00;5083507;28;20098;-73
2023/09/12 04:17:48;;;;;;;15.48;7.50;;;;;;;22.82;69.43;99465.56;5085476;28;20036;-74
2023/09/12 04:20:16;;;;;;;15.37;7.30;;;;;;;22.75;69.34;99474.50;5084023;28;20567;-73
2023/09/12 04:22:42;;;;;;;16.50;7.40;;;;;;;22.63;69.66;99467.81;5084582;28;20840;-73
2023/09/12 04:25:07;;;;;;;12.75;6.32;;;;;;;22.61;69.73;99469.34;5084678;28;20139;-73
2023/09/12 04:27:34;;;;;;;11.50;6.75;;;;;;;22.61;69.41;99467.38;5085184;28;20042;-76
2023/09/12 04:29:59;;;;;;;11.57;6.40;;;;;;;22.57;69.29;99471.19;5085488;28;20036;-73
2023/09/12 04:32:24;;;;;;;13.63;6.70;;;;;;;22.51;69.45;99474.25;5085454;28;20036;-75
2023/09/12 04:34:50;;;;;;;11.67;6.77;;;;;;;22.46;69.82;99473.66;5085035;28;20032;-74
2023/09/12 04:37:16;;;;;;;15.60;7.28;;;;;;;22.39;69.69;99469.53;5084754;28;20370;-73
2023/09/12 04:39:41;;;;;;;12.98;7.25;;;;;;;22.36;69.98;99461.09;5084807;28;20036;-72
2023/09/12 04:42:06;;;;;;;10.50;6.78;;;;;;;22.36;70.19;99470.25;5084789;28;20043;-72
2023/09/12 04:44:40;;;;;;;15.52;7.53;;;;;;;22.42;69.91;99472.75;5083719;28;20062;-73
2023/09/12 04:47:06;;;;;;;14.18;8.18;;;;;;;22.29;70.64;99475.59;5084971;28;20083;-73
2023/09/12 04:49:31;;;;;;;13.13;7.95;;;;;;;22.36;70.50;99477.75;5084533;28;20424;-72
2023/09/12 04:51:56;;;;;;;14.02;9.30;;;;;;;22.27;70.99;99470.38;5084823;28;20691;-73
2023/09/12 04:54:22;;;;;;;15.05;8.98;;;;;;;22.23;71.32;99477.78;5084055;28;20032;-73
2023/09/12 04:56:47;;;;;;;14.77;9.65;;;;;;;22.31;71.28;99481.59;5088362;28;20028;-82
2023/09/12 04:59:12;;;;;;;16.13;9.43;;;;;;;22.20;71.77;99484.06;5087941;28;20044;-80
2023/09/12 05:01:38;;;;;;;13.43;9.40;;;;;;;22.25;71.66;99485.78;5089652;28;20489;-80
2023/09/12 05:04:03;;;;;;;13.37;9.10;;;;;;;22.34;71.23;99482.84;5087850;28;20103;-83
2023/09/12 05:06:29;;;;;;;17.25;9.52;;;;;;;22.36;71.45;99467.47;5085446;28;20326;-74
2023/09/12 05:08:54;;;;;;;19.23;10.18;;;;;;;22.41;71.23;99471.16;5085356;28;20035;-72
2023/09/12 05:11:19;;;;;;;16.52;10.20;;;;;;;22.31;71.73;99467.72;5084712;28;20480;-73
2023/09/12 05:13:45;;;;;;;17.00;10.07;;;;;;;22.34;71.93;99472.56;5084104;28;20485;-73
2023/09/12 05:16:10;;;;;;;14.07;8.80;;;;;;;22.36;71.77;99475.78;5084423;28;20032;-74
2023/09/12 05:18:35;;;;;;;15.23;10.17;;;;;;;22.48;71.47;99483.25;5084215;28;20047;-73
2023/09/12 05:21:01;;;;;;;16.05;10.07;;;;;;;22.53;71.78;99478.63;5083512;28;20673;-72
2023/09/12 05:23:26;;;;;;;19.27;10.73;;;;;;;22.54;71.89;99488.59;5083570;28;20024;-72
2023/09/12 05:25:51;;;;;;;14.88;9.60;;;;;;;22.60;72.09;99489.91;5083713;28;20036;-73
2023/09/12 05:28:17;;;;;;;17.13;9.57;;;;;;;22.62;72.08;99485.63;5083723;28;20034;-73
2023/09/12 05:30:43;;;;;;;21.08;9.63;;;;;;;22.64;72.29;99499.16;5084394;28;20252;-73
2023/09/12 05:33:08;;;;;;;17.65;10.52;;;;;;;22.70;71.93;99517.22;5084403;27;20040;-73
2023/09/12 05:35:33;;;;;;;16.57;10.50;;;;;;;22.72;71.56;99523.25;5083389;28;20080;-73
2023/09/12 05:37:59;;;;;;;13.80;9.65;;;;;;;22.70;71.90;99500.56;5083040;28;20032;-73
2023/09/12 05:40:24;;;;;;;14.80;9.33;;;;;;;22.70;72.34;99460.88;5083180;28;20158;-74
2023/09/12 05:42:49;;;;;;;17.38;9.88;;;;;;;22.70;72.18;99438.66;5083536;28;20028;-72
2023/09/12 05:45:15;;;;;;;17.45;10.20;;;;;;;22.72;72.29;99445.44;5083304;28;20535;-74
2023/09/12 05:47:40;;;;;;;20.20;10.18;;;;;;;22.70;72.33;99467.22;5084100;28;20097;-75
2023/09/12 05:50:06;;;;;;;16.13;10.53;;;;;;;22.70;72.78;99495.00;5083965;28;20318;-74
2023/09/12 05:52:32;;;;;;;14.70;10.05;;;;;;;22.68;72.78;99500.09;5084189;28;20481;-73
2023/09/12 05:54:57;;;;;;;17.83;11.15;;;;;;;22.66;72.86;99516.31;5083447;28;20034;-72
2023/09/12 05:57:23;;;;;;;19.08;11.10;;;;;;;22.63;72.92;99522.56;5082923;28;20486;-73
2023/09/12 05:59:49;;;;;;;20.08;10.88;;;;;;;22.55;73.26;99526.28;5083692;28;20076;-73
2023/09/12 06:02:14;;;;;;;17.23;9.45;;;;;;;22.51;74.04;99531.75;5083515;28;20382;-74
2023/09/12 06:04:39;;;;;;;20.02;12.02;;;;;;;22.51;73.82;99532.56;5084343;28;20024;-80
2023/09/12 06:07:05;;;;;;;17.27;10.90;;;;;;;22.44;74.50;99546.22;5086992;28;20048;-81
2023/09/12 06:09:30;;;;;;;18.73;12.27;;;;;;;22.42;74.88;99558.84;5087848;28;20376;-81
2023/09/12 06:11:56;;;;;;;20.77;11.25;;;;;;;22.41;75.20;99565.56;5088334;28;20047;-81
2023/09/12 06:14:21;;;;;;;23.75;10.63;;;;;;;22.35;76.00;99565.00;5086949;28;20044;-81
2023/09/12 06:16:46;;;;;;;18.90;11.95;;;;;;;22.35;75.92;99565.78;5087407;28;20043;-82
2023/09/12 06:19:12;;;;;;;18.35;10.52;;;;;;;22.36;75.77;99563.81;5087195;28;20040;-81
2023/09/12 06:21:37;;;;;;;18.48;12.02;;;;;;;22.36;75.89;99563.81;5086289;28;20119;-81
2023/09/12 06:24:17;;;;;;;17.42;10.73;;;;;;;22.43;76.08;99552.94;5087137;28;20040;-80
2023/09/12 06:26:43;;;;;;;18.45;10.55;;;;;;;22.56;76.16;99539.00;5086679;28;20063;-81
2023/09/12 06:29:09;;;;;;;17.30;10.75;;;;;;;22.64;76.00;99529.72;5086890;28;20062;-80
2023/09/12 06:31:35;;;;;;;17.80;11.77;;;;;;;22.72;76.07;99525.22;5086586;28;20804;-82
2023/09/12 06:34:01;;;;;;;20.15;12.48;;;;;;;22.76;76.05;99531.66;5089201;28;20090;-81
2023/09/12 06:36:29;;;;;;;23.90;12.30;;;;;;;22.68;75.81;99555.66;5091386;28;20032;-82
2023/09/12 06:38:54;;;;;;;21.13;11.00;;;;;;;22.72;75.75;99592.69;5091078;28;20063;-82
2023/09/12 06:41:20;;;;;;;15.50;10.50;;;;;;;22.65;76.29;99630.53;5090692;28;20105;-81
2023/09/12 06:43:45;;;;;;;16.40;10.38;;;;;;;22.61;76.62;99638.78;5090428;28;20104;-80
2023/09/12 06:46:11;;;;;;;19.30;10.40;;;;;;;22.42;76.42;99617.97;5091163;28;20484;-80
2023/09/12 06:48:36;;;;;;;14.67;8.73;;;;;;;22.34;76.20;99638.34;5089644;28;20037;-79
2023/09/12 06:51:05;;;;;;;15.97;9.83;;;;;;;22.36;75.65;99631.28;5091603;28;20264;-83
2023/09/12 06:53:30;;;;;;;13.95;8.30;;;;;;;22.50;75.59;99622.59;5090402;28;20746;-81
2023/09/12 06:55:57;;;;;;;13.20;8.45;;;;;;;22.59;74.76;99616.09;5090413;28;20042;-81
2023/09/12 06:58:22;;;;;;;11.73;7.25;;;;;;;22.61;74.59;99608.22;5090303;28;20452;-83
2023/09/12 07:00:48;;;;;;;15.18;8.65;;;;;;;22.63;74.14;99583.66;5086531;28;20035;-81
2023/09/12 07:03:13;;;;;;;12.00;7.85;;;;;;;22.50;74.01;99592.03;5087270;28;20047;-81
2023/09/12 07:05:39;;;;;;;12.07;7.83;;;;;;;22.59;74.25;99599.41;5088411;28;20028;-83
2023/09/12 07:08:05;;;;;;;14.93;8.50;;;;;;;22.65;73.76;99603.59;5088553;28;20278;-81
2023/09/12 07:10:30;;;;;;;18.30;9.13;;;;;;;22.61;73.98;99591.53;5088072;28;20035;-81
2023/09/12 07:12:57;;;;;;;14.55;8.90;;;;;;;22.63;73.88;99550.34;5088675;28;20371;-82
2023/09/12 07:15:22;;;;;;;15.45;9.40;;;;;;;22.72;74.14;99555.78;5087245;28;20048;-74
2023/09/12 07:17:48;;;;;;;12.80;8.30;;;;;;;22.77;73.96;99572.19;5085972;28;20113;-73
2023/09/12 07:20:17;;;;;;;12.02;8.30;;;;;;;22.59;74.37;99597.47;5085921;28;20257;-75
2023/09/12 07:22:43;;;;;;;12.07;7.35;;;;;;;22.54;74.82;99608.00;5086046;28;20039;-74
2023/09/12 07:25:11;;;;;;;15.85;8.75;;;;;;;22.58;74.66;99595.00;5085981;28;20028;-83
2023/09/12 07:27:36;;;;;;;13.68;6.95;;;;;;;22.55;74.49;99560.44;5087542;28;20039;-78
2023/09/12 07:30:02;;;;;;;11.40;6.30;;;;;;;22.67;74.29;99556.84;5086823;28;20040;-80
2023/09/12 07:32:28;;;;;;;12.52;7.10;;;;;;;22.71;74.24;99563.31;5087808;28;20039;-82
2023/09/12 07:34:53;;;;;;;15.60;7.30;;;;;;;22.74;74.29;99561.78;5086821;28;20028;-81
2023/09/12 07:37:18;;;;;;;11.77;6.20;;;;;;;22.72;74.23;99569.69;5087541;28;20738;-81
2023/09/12 07:39:43;;;;;;;11.95;7.20;;;;;;;22.71;74.11;99568.88;5087747;28;20031;-82
2023/09/12 07:42:09;;;;;;;15.17;8.07;;;;;;;22.76;74.19;99569.78;5089855;28;20019;-86
2023/09/12 07:44:34;;;;;;;14.00;7.97;;;;;;;22.77;74.00;99543.59;5087186;28;20747;-87
2023/09/12 07:46:59;;;;;;;13.13;7.50;;;;;;;22.82;74.28;99538.59;5088062;28;20368;-88
2023/09/12 07:49:26;;;;;;;13.43;6.80;;;;;;;22.90;73.95;99536.84;5093176;28;20816;-85
2023/09/12 07:51:51;;;;;;;12.77;7.43;;;;;;;22.89;74.11;99540.78;5094017;28;20335;-85
2023/09/12 07:54:17;;;;;;;11.43;7.18;;;;;;;22.95;73.86;99539.34;5095724;28;20064;-85
2023/09/12 07:56:43;;;;;;;10.95;7.85;;;;;;;23.01;73.84;99541.84;5094947;28;20625;-84
2023/09/12 07:59:09;;;;;;;16.45;7.28;;;;;;;23.04;73.48;99536.44;5095309;28;20466;-84
2023/09/12 08:01:35;;;;;;;15.00;9.15;;;;;;;23.04;73.32;99546.72;5100674;28;20038;-81
2023/09/12 08:04:00;;;;;;;14.85;7.55;;;;;;;23.03;73.24;99553.44;5094404;28;20087;-84
2023/09/12 08:06:26;;;;;;;12.03;8.10;;;;;;;22.99;73.63;99556.13;5089360;28;20040;-85
2023/09/12 08:08:51;;;;;;;12.15;7.65;;;;;;;23.07;73.66;99554.34;5095503;28;21083;-85
2023/09/12 08:11:16;;;;;;;13.90;8.27;;;;;;;23.10;73.43;99561.97;5095311;28;20036;-86
2023/09/12 08:13:41;;;;;;;11.98;7.72;;;;;;;23.15;73.50;99553.38;5095993;28;21021;-84
2023/09/12 08:16:07;;;;;;;13.13;8.50;;;;;;;23.27;73.02;99551.72;5095425;28;20208;-85
2023/09/12 08:18:32;;;;;;;14.02;8.32;;;;;;;23.31;73.31;99558.13;5095270;28;20039;-85
2023/09/12 08:20:58;;;;;;;13.30;9.07;;;;;;;23.39;73.29;99564.72;5096397;28;20024;-86
2023/09/12 08:23:23;;;;;;;17.13;9.23;;;;;;;23.43;72.99;99566.41;5096828;28;20061;-85
2023/09/12 08:25:49;;;;;;;16.80;9.68;;;;;;;23.51;72.77;99569.44;5095160;28;20024;-85
2023/09/12 08:28:14;;;;;;;20.58;9.38;;;;;;;23.47;72.55;99562.97;5094970;28;20023;-86
2023/09/12 08:30:39;;;;;;;15.68;9.82;;;;;;;23.44;72.85;99572.78;5094787;28;20031;-87
2023/09/12 08:33:06;;;;;;;18.35;10.95;;;;;;;23.47;72.77;99569.34;5097213;28;20027;-86
2023/09/12 08:35:32;;;;;;;14.00;9.48;;;;;;;23.47;72.94;99568.53;5093668;28;20024;-86
2023/09/12 08:37:57;;;;;;;12.13;8.38;;;;;;;23.47;72.69;99562.97;5095877;28;20769;-86
2023/09/12 08:40:23;;;;;;;15.13;9.82;;;;;;;23.45;72.98;99571.66;5094701;28;20020;-86
2023/09/12 08:42:51;;;;;;;14.60;8.45;;;;;;;23.46;72.65;99567.72;5094007;28;20028;-86
2023/09/12 08:45:18;;;;;;;14.70;9.50;;;;;;;23.42;72.73;99587.06;5094056;28;20034;-87
2023/09/12 08:47:52;;;;;;;15.63;9.43;;;;;;;23.41;72.87;99582.66;5091989;28;20592;-88
2023/09/12 08:50:20;;;;;;;13.25;8.65;;;;;;;23.41;72.80;99584.63;5095127;28;20645;-88
2023/09/12 08:52:46;;;;;;;17.38;10.35;;;;;;;23.44;72.73;99586.69;5094972;28;20039;-88
2023/09/12 08:55:12;;;;;;;12.32;8.27;;;;;;;23.53;72.52;99583.78;5093763;28;20103;-87
2023/09/12 08:57:48;;;;;;;19.08;10.25;;;;;;;23.56;72.45;99591.41;5094146;28;20055;-87
2023/09/12 09:00:14;;;;;;;14.98;9.38;;;;;;;23.57;72.54;99601.38;5093905;28;20027;-87
2023/09/12 09:02:40;;;;;;;13.57;8.10;;;;;;;23.57;72.33;99600.56;5094622;28;20077;-87
2023/09/12 09:05:07;;;;;;;13.55;9.55;;;;;;;23.57;72.50;99595.81;5094284;28;20032;-86
2023/09/12 09:07:37;;;;;;;14.20;9.45;;;;;;;23.54;72.35;99591.75;5093930;28;20119;-85
2023/09/12 09:10:05;;;;;;;12.75;8.73;;;;;;;23.57;72.25;99595.00;5093602;28;20111;-86
2023/09/12 09:12:31;;;;;;;13.75;8.77;;;;;;;23.53;71.81;99584.56;5091413;28;20024;-79
2023/09/12 09:14:56;;;;;;;11.25;7.05;;;;;;;23.53;71.80;99578.22;5087435;28;20390;-85
2023/09/12 09:17:22;;;;;;;12.10;7.43;;;;;;;23.52;71.83;99580.19;5085466;28;20159;-86
2023/09/12 09:19:47;;;;;;;11.30;6.60;;;;;;;23.52;71.46;99571.03;5089493;28;20085;-86
2023/09/12 09:22:13;;;;;;;10.73;6.47;;;;;;;23.60;71.80;99567.25;5082287;28;20046;-84
2023/09/12 09:24:38;;;;;;;9.70;6.40;;;;;;;23.63;71.81;99577.69;5086106;28;20750;-88
2023/09/12 09:27:04;;;;;;;13.05;7.40;;;;;;;23.70;71.37;99581.78;5086206;28;20059;-86
2023/09/12 09:29:31;;;;;;;10.80;7.07;;;;;;;23.78;71.29;99578.03;5085934;28;20057;-85
2023/09/12 09:31:59;;;;;;;12.63;7.95;;;;;;;23.79;71.43;99583.25;5085234;28;20055;-85
2023/09/12 09:34:24;;;;;;;11.73;7.20;;;;;;;23.84;70.76;99589.72;5085227;28;20509;-85
2023/09/12 09:36:52;;;;;;;14.23;6.97;;;;;;;23.87;70.54;99598.13;5085207;28;20044;-85
2023/09/12 09:39:23;;;;;;;12.88;8.80;;;;;;;23.88;70.36;99605.31;5083693;28;20036;-85
2023/09/12 09:41:50;;;;;;;11.68;7.00;;;;;;;23.84;70.83;99604.41;5085197;28;20032;-85
2023/09/12 09:44:16;;;;;;;10.00;7.38;;;;;;;23.87;70.93;99602.88;5084051;28;20046;-84
2023/09/12 09:46:45;;;;;;;11.80;6.97;;;;;;;23.92;70.79;99604.59;5084605;28;20120;-85
2023/09/12 09:49:14;;;;;;;10.88;7.50;;;;;;;23.96;70.54;99611.06;5084131;28;20035;-85
2023/09/12 09:51:43;;;;;;;15.15;8.55;;;;;;;24.00;70.62;99618.31;5084381;28;20132;-85
2023/09/12 09:54:09;;;;;;;12.35;8.27;;;;;;;24.03;70.52;99622.38;5083703;28;20063;-86
2023/09/12 09:56:48;;;;;;;12.75;7.72;;;;;;;24.08;70.62;99630.44;5084215;28;20101;-86
2023/09/12 09:59:19;;;;;;;10.18;7.13;;;;;;;24.16;70.19;99636.19;5084069;28;20169;-85
2023/09/12 10:01:45;;;;;;;11.25;7.53;;;;;;;24.13;70.52;99635.75;5084656;28;20036;-86
2023/09/12 10:04:10;;;;;;;11.70;7.63;;;;;;;24.20;70.26;99637.09;5084400;28;20136;-87
2023/09/12 10:06:37;;;;;;;10.87;7.37;;;;;;;24.33;69.92;99630.25;5083625;28;20106;-86
2023/09/12 10:09:06;;;;;;;11.88;6.68;;;;;;;24.49;69.76;99626.63;5084160;28;20327;-85
2023/09/12 10:11:33;;;;;;;10.10;6.65;;;;;;;24.71;69.08;99630.69;5085375;28;20546;-86
2023/09/12 10:14:03;;;;;;;14.88;7.65;;;;;;;24.78;67.91;99618.88;5084924;28;20208;-88
2023/09/12 10:16:35;;;;;;;11.18;6.25;;;;;;;24.75;67.43;99616.03;5085301;28;20040;-87
2023/09/12 10:19:13;;;;;;;11.65;7.38;;;;;;;24.72;67.63;99612.00;5084294;28;20627;-86
2023/09/12 10:21:48;;;;;;;14.52;6.72;;;;;;;24.74;67.10;99623.59;5084271;28;20066;-87
2023/09/12 10:24:14;;;;;;;10.52;8.00;;;;;;;24.74;67.07;99626.38;5084731;28;20284;-85
2023/09/12 10:26:43;;;;;;;10.70;7.18;;;;;;;24.71;66.91;99627.09;5083906;28;20127;-86
2023/09/12 10:29:11;;;;;;;12.13;8.13;;;;;;;24.68;66.78;99614.72;5084604;28;20071;-86
2023/09/12 10:31:37;;;;;;;9.68;6.68;;;;;;;24.65;66.58;99615.41;5084420;28;20036;-87
2023/09/12 10:34:04;;;;;;;12.25;7.97;;;;;;;24.72;67.31;99609.19;5084201;28;20093;-86
2023/09/12 10:36:30;;;;;;;12.10;8.15;;;;;;;24.77;67.73;99608.94;5084475;28;20044;-86
2023/09/12 10:38:59;;;;;;;10.30;7.15;;;;;;;24.83;66.49;99610.25;5084518;28;20489;-87
2023/09/12 10:41:25;;;;;;;11.88;8.13;;;;;;;24.86;66.79;99621.81;5084706;28;20134;-86
2023/09/12 10:43:53;;;;;;;11.38;7.85;;;;;;;24.89;66.22;99610.75;5082560;28;20032;-87
2023/09/12 10:46:18;;;;;;;10.60;6.97;;;;;;;24.95;66.09;99608.47;5086033;28;20032;-86
2023/09/12 10:48:44;;;;;;;10.40;6.78;;;;;;;24.99;66.06;99609.41;5084794;28;20810;-87
2023/09/12 10:51:12;;;;;;;8.60;6.53;;;;;;;25.06;65.18;99615.09;5083751;28;20067;-85
2023/09/12 10:53:37;;;;;;;9.88;6.63;;;;;;;25.10;64.34;99603.22;5084005;28;20070;-87
2023/09/12 10:56:09;;;;;;;13.55;5.05;;;;;;;25.11;64.46;99594.47;5082067;28;20039;-77
2023/09/12 10:59:06;;;;;;;16.42;6.97;;;;;;;25.19;64.53;99587.06;5082900;28;20036;-78
2023/09/12 11:01:32;;;;;;;9.25;6.40;;;;;;;25.27;64.83;99588.81;5082799;28;20473;-80
2023/09/12 11:03:58;;;;;;;8.63;6.13;;;;;;;25.31;64.74;99591.66;5083086;28;20036;-79
2023/09/12 11:06:29;;;;;;;10.33;6.60;;;;;;;25.27;64.21;99585.19;5082830;28;20425;-79
2023/09/12 11:09:18;;;;;;;10.82;6.63;;;;;;;25.26;63.91;99597.56;5082662;28;20276;-78
2023/09/12 11:11:46;;;;;;;8.02;5.65;;;;;;;25.29;64.19;99594.81;5081498;28;20036;-79
2023/09/12 11:14:11;;;;;;;9.05;5.43;;;;;;;25.31;64.49;99586.06;5081995;28;20435;-79
2023/09/12 11:16:37;;;;;;;7.32;5.03;;;;;;;25.33;64.31;99588.50;5081308;28;20044;-78
2023/09/12 11:19:18;;;;;;;10.32;6.03;;;;;;;25.41;63.95;99593.03;5083369;28;20500;-80
2023/09/12 11:21:49;;;;;;;7.90;5.10;;;;;;;25.50;63.04;99590.81;5086743;28;20031;-80